Time;durP1;ratioP1;P1;durP2;ratioP2;P2;SDS_P1;SDS_P2;PMS_P1;PMS_P2;Temp;Humidity;BMP_temperature;BMP_pressure;BME280_temperature;BME280_humidity;BME280_pressure;Samples;Min_cycle;Max_cycle;Signal;HPM_P1;HPM_P2
2022/07/30 00:00:29;;;;;;;12.95;6.55;;;;;;;17.60;100.00;101655.59;5152661;27;20569;-59
2022/07/30 00:02:59;;;;;;;16.05;6.93;;;;;;;17.52;100.00;101652.69;5155371;27;20055;-59
2022/07/30 00:05:27;;;;;;;12.95;6.85;;;;;;;17.47;100.00;101646.94;5155407;27;20409;-58
2022/07/30 00:07:55;;;;;;;14.07;7.65;;;;;;;17.36;100.00;101643.31;5155093;27;20047;-57
2022/07/30 00:10:23;;;;;;;13.10;7.85;;;;;;;17.43;100.00;101646.31;5155519;27;20466;-59
2022/07/30 00:12:51;;;;;;;16.48;7.43;;;;;;;17.31;100.00;101644.66;5155054;27;20390;-58
2022/07/30 00:15:19;;;;;;;13.88;8.05;;;;;;;17.40;100.00;101642.09;5154462;27;20077;-59
2022/07/30 00:17:48;;;;;;;15.25;8.63;;;;;;;17.36;100.00;101645.16;5152522;27;20227;-59
2022/07/30 00:20:17;;;;;;;16.27;8.18;;;;;;;17.35;100.00;101652.25;5153081;27;20038;-58
2022/07/30 00:22:46;;;;;;;19.73;8.98;;;;;;;17.31;100.00;101652.66;5154968;27;20043;-58
2022/07/30 00:25:15;;;;;;;17.92;8.65;;;;;;;17.30;100.00;101646.50;5155051;27;20528;-58
2022/07/30 00:27:44;;;;;;;14.80;9.65;;;;;;;17.35;100.00;101648.75;5151814;27;20050;-58
2022/07/30 00:30:12;;;;;;;12.93;8.18;;;;;;;17.32;100.00;101657.84;5153029;27;20129;-58
2022/07/30 00:32:40;;;;;;;19.90;9.27;;;;;;;17.26;100.00;101649.50;5154975;27;20043;-58
2022/07/30 00:35:09;;;;;;;15.65;9.15;;;;;;;17.29;100.00;101647.44;5152739;27;20435;-59
2022/07/30 00:37:39;;;;;;;16.88;9.48;;;;;;;17.32;100.00;101641.03;5151403;27;20050;-59
2022/07/30 00:40:08;;;;;;;14.50;8.45;;;;;;;17.31;100.00;101642.84;5154565;27;20042;-58
2022/07/30 00:42:38;;;;;;;18.45;9.90;;;;;;;17.24;100.00;101644.31;5136827;27;20137;-58
2022/07/30 00:45:09;;;;;;;21.08;9.10;;;;;;;17.20;100.00;101638.41;5155360;27;20055;-59
2022/07/30 00:47:37;;;;;;;16.40;9.70;;;;;;;17.09;100.00;101638.44;5154625;27;20043;-58
2022/07/30 00:50:08;;;;;;;18.02;9.95;;;;;;;17.13;100.00;101641.69;5135530;27;20050;-58
2022/07/30 00:52:39;;;;;;;17.17;9.45;;;;;;;17.19;100.00;101646.50;5154105;27;20069;-58
2022/07/30 00:55:10;;;;;;;17.52;9.52;;;;;;;17.13;100.00;101639.03;5154755;27;20031;-58
2022/07/30 00:57:39;;;;;;;18.15;10.57;;;;;;;17.08;100.00;101633.25;5154752;27;20042;-58
2022/07/30 01:00:12;;;;;;;16.38;11.40;;;;;;;16.94;100.00;101644.97;5154349;27;20503;-58
2022/07/30 01:02:40;;;;;;;;;;;;;;;16.98;100.00;101639.28;5154359;27;20039;-59
2022/07/30 01:05:09;;;;;;;16.73;10.88;;;;;;;16.94;100.00;101639.66;5153149;27;20034;-59
2022/07/30 01:07:38;;;;;;;18.17;10.45;;;;;;;16.89;100.00;101647.97;5150000;27;20099;-58
2022/07/30 01:10:09;;;;;;;18.52;10.88;;;;;;;16.92;100.00;101642.44;5152473;27;20071;-57
2022/07/30 01:12:37;;;;;;;18.83;10.95;;;;;;;16.94;100.00;101642.31;5154198;27;20062;-58
2022/07/30 01:15:07;;;;;;;16.77;10.50;;;;;;;16.96;100.00;101643.88;5154394;27;20457;-59
2022/07/30 01:17:36;;;;;;;17.25;10.05;;;;;;;16.94;100.00;101637.00;5153828;27;20053;-57
2022/07/30 01:20:06;;;;;;;17.73;10.35;;;;;;;16.94;100.00;101643.16;5134347;27;20077;-58
2022/07/30 01:22:50;;;;;;;17.88;9.63;;;;;;;16.92;100.00;101638.94;5150543;27;20050;-57
2022/07/30 01:25:27;;;;;;;15.07;9.55;;;;;;;16.81;100.00;101637.09;5153102;27;20060;-58
2022/07/30 01:28:01;;;;;;;19.23;9.40;;;;;;;16.93;100.00;101645.94;5153860;27;20038;-58
2022/07/30 01:30:34;;;;;;;15.45;9.43;;;;;;;16.90;100.00;101636.41;5154125;27;20047;-57
2022/07/30 01:33:04;;;;;;;15.52;9.70;;;;;;;16.90;100.00;101644.38;5154119;27;20039;-59
2022/07/30 01:35:33;;;;;;;17.30;9.23;;;;;;;16.92;100.00;101631.81;5153827;27;20501;-59
2022/07/30 01:38:04;;;;;;;16.33;8.90;;;;;;;16.85;100.00;101646.50;5153339;27;20420;-58
2022/07/30 01:40:34;;;;;;;16.65;9.75;;;;;;;16.90;100.00;101642.53;5153657;27;20051;-59
2022/07/30 01:43:06;;;;;;;15.73;9.40;;;;;;;16.87;100.00;101629.47;5154077;27;20069;-58
2022/07/30 01:45:36;;;;;;;16.67;9.35;;;;;;;16.84;100.00;101637.69;5154139;27;20121;-58
2022/07/30 01:48:13;;;;;;;14.82;9.85;;;;;;;16.86;100.00;101641.06;5152189;27;20065;-59
2022/07/30 01:50:44;;;;;;;15.82;10.00;;;;;;;16.72;100.00;101634.19;5150352;27;20053;-58
2022/07/30 01:53:15;;;;;;;16.83;10.15;;;;;;;16.70;100.00;101630.81;5135021;27;20054;-59
2022/07/30 01:55:44;;;;;;;17.55;10.18;;;;;;;16.72;100.00;101633.34;5153360;27;20051;-58
2022/07/30 01:58:19;;;;;;;16.85;10.85;;;;;;;16.60;100.00;101635.16;5134638;27;20068;-57
2022/07/30 02:00:49;;;;;;;17.42;10.13;;;;;;;16.67;100.00;101635.53;5153123;27;20043;-58
2022/07/30 02:03:17;;;;;;;15.20;10.35;;;;;;;16.67;100.00;101636.34;5155251;27;20046;-58
2022/07/30 02:05:52;;;;;;;15.43;10.20;;;;;;;16.58;100.00;101636.25;5157786;27;20137;-59
2022/07/30 02:08:27;;;;;;;17.80;10.95;;;;;;;16.56;100.00;101625.75;5157559;27;20489;-58
2022/07/30 02:11:03;;;;;;;15.85;10.27;;;;;;;16.52;100.00;101632.25;5157594;27;20042;-59
2022/07/30 02:13:36;;;;;;;18.33;10.88;;;;;;;16.49;100.00;101628.03;5157473;27;20043;-58
2022/07/30 02:16:11;;;;;;;17.27;11.75;;;;;;;16.42;100.00;101639.25;5154470;27;20050;-57
2022/07/30 02:18:48;;;;;;;17.77;10.50;;;;;;;16.39;100.00;101640.34;5155607;27;20131;-58
2022/07/30 02:21:20;;;;;;;19.67;11.48;;;;;;;16.33;100.00;101631.06;5157369;27;20074;-58
2022/07/30 02:23:50;;;;;;;20.23;11.57;;;;;;;16.35;100.00;101637.06;5155739;27;20054;-58
2022/07/30 02:26:22;;;;;;;23.92;13.43;;;;;;;16.28;100.00;101641.16;5154548;27;20053;-56
2022/07/30 02:28:59;;;;;;;19.63;12.73;;;;;;;16.30;100.00;101633.09;5156889;27;20080;-56
2022/07/30 02:31:29;;;;;;;19.67;11.52;;;;;;;16.33;100.00;101641.66;5154227;27;20042;-57
2022/07/30 02:34:03;;;;;;;18.20;12.25;;;;;;;16.39;100.00;101635.88;5156399;27;20047;-57
2022/07/30 02:36:33;;;;;;;18.70;12.18;;;;;;;16.39;100.00;101638.53;5153063;27;20042;-58
2022/07/30 02:39:03;;;;;;;18.50;12.38;;;;;;;16.42;100.00;101637.44;5135250;27;20103;-58
2022/07/30 02:41:32;;;;;;;17.50;11.10;;;;;;;16.51;100.00;101642.03;5156917;27;20070;-58
2022/07/30 02:44:03;;;;;;;17.92;12.27;;;;;;;16.57;100.00;101646.03;5156916;27;20046;-57
2022/07/30 02:46:33;;;;;;;20.70;12.23;;;;;;;16.52;100.00;101642.88;5156953;27;20129;-58
2022/07/30 02:49:03;;;;;;;18.88;12.30;;;;;;;16.46;100.00;101638.91;5156512;27;20074;-58
2022/07/30 02:51:32;;;;;;;19.63;12.65;;;;;;;16.40;100.00;101644.66;5138015;27;20123;-58
2022/07/30 02:54:02;;;;;;;18.05;11.88;;;;;;;16.36;100.00;101636.13;5156968;27;20497;-56
2022/07/30 02:56:31;;;;;;;21.27;11.88;;;;;;;16.35;100.00;101636.25;5155694;27;20401;-58
2022/07/30 02:59:05;;;;;;;20.50;12.25;;;;;;;16.28;100.00;101627.91;5153339;27;20470;-58
2022/07/30 03:01:33;;;;;;;17.40;12.82;;;;;;;16.19;100.00;101642.69;5156197;27;20385;-58
2022/07/30 03:04:02;;;;;;;19.67;11.93;;;;;;;16.25;100.00;101644.03;5156487;27;20043;-58
2022/07/30 03:06:32;;;;;;;21.67;12.65;;;;;;;16.33;100.00;101646.13;5156741;27;20050;-59
2022/07/30 03:09:03;;;;;;;17.20;11.80;;;;;;;16.27;100.00;101646.59;5156423;27;20100;-59
2022/07/30 03:11:34;;;;;;;17.35;12.00;;;;;;;16.33;100.00;101641.66;5156193;27;20057;-58
2022/07/30 03:14:04;;;;;;;18.63;13.25;;;;;;;16.34;100.00;101640.69;5156564;27;20580;-58
2022/07/30 03:16:37;;;;;;;16.23;12.80;;;;;;;16.36;100.00;101643.22;5154228;27;20509;-58
2022/07/30 03:19:09;;;;;;;18.95;13.70;;;;;;;16.30;100.00;101644.53;5154371;27;20057;-57
2022/07/30 03:21:38;;;;;;;17.85;12.45;;;;;;;16.32;100.00;101641.75;5135801;27;20058;-58
2022/07/30 03:24:08;;;;;;;23.00;13.45;;;;;;;16.24;100.00;101645.03;5153890;27;20464;-58
2022/07/30 03:26:37;;;;;;;20.90;12.70;;;;;;;16.27;100.00;101642.13;5156218;27;20049;-58
2022/07/30 03:29:08;;;;;;;19.40;12.02;;;;;;;16.37;100.00;101648.44;5156358;27;20133;-58
2022/07/30 03:31:39;;;;;;;18.52;13.60;;;;;;;16.28;100.00;101643.81;5137977;27;20058;-57
2022/07/30 03:34:09;;;;;;;19.45;12.23;;;;;;;16.30;100.00;101652.50;5156651;27;20434;-58
2022/07/30 03:36:40;;;;;;;16.92;13.10;;;;;;;16.37;100.00;101656.41;5152396;27;20050;-59
2022/07/30 03:39:09;;;;;;;16.27;12.40;;;;;;;16.39;100.00;101653.63;5152969;27;20039;-59
2022/07/30 03:41:38;;;;;;;19.90;12.65;;;;;;;16.33;100.00;101667.34;5155612;27;20047;-58
2022/07/30 03:44:08;;;;;;;18.13;12.25;;;;;;;16.25;100.00;101661.78;5155510;27;20055;-59
2022/07/30 03:46:37;;;;;;;18.00;13.07;;;;;;;16.23;100.00;101662.72;5155490;27;20047;-59
2022/07/30 03:49:06;;;;;;;17.50;13.18;;;;;;;16.25;100.00;101659.97;5155575;27;20042;-57
2022/07/30 03:51:36;;;;;;;19.95;13.55;;;;;;;16.13;100.00;101666.22;5136940;27;20042;-57
2022/07/30 03:54:08;;;;;;;17.95;13.32;;;;;;;16.26;100.00;101668.78;5155508;27;20497;-57
2022/07/30 03:56:41;;;;;;;19.67;13.07;;;;;;;16.31;100.00;101671.94;5155620;27;20057;-58
2022/07/30 03:59:13;;;;;;;17.08;12.60;;;;;;;16.36;100.00;101678.59;5156003;27;20047;-62
2022/07/30 04:01:41;;;;;;;20.98;13.23;;;;;;;16.37;100.00;101677.63;5155998;27;20053;-58
2022/07/30 04:04:12;;;;;;;17.98;12.85;;;;;;;16.32;100.00;101674.47;5153576;27;20042;-57
2022/07/30 04:06:41;;;;;;;18.95;12.57;;;;;;;16.28;100.00;101678.31;5151607;27;20042;-59
2022/07/30 04:09:11;;;;;;;16.85;12.90;;;;;;;16.26;100.00;101672.28;5155388;27;20039;-58
2022/07/30 04:11:40;;;;;;;19.10;13.50;;;;;;;16.20;100.00;101673.59;5155221;27;20439;-58
2022/07/30 04:14:10;;;;;;;16.83;12.27;;;;;;;16.16;100.00;101682.75;5154772;27;20110;-59
2022/07/30 04:16:44;;;;;;;16.80;12.68;;;;;;;16.10;100.00;101674.41;5154487;27;20637;-59
2022/07/30 04:19:19;;;;;;;17.02;12.48;;;;;;;16.20;100.00;101675.41;5154472;27;20049;-59
2022/07/30 04:21:49;;;;;;;18.92;12.90;;;;;;;16.15;100.00;101670.44;5152495;27;20055;-58
2022/07/30 04:24:20;;;;;;;16.00;11.98;;;;;;;16.19;100.00;101669.25;5151292;27;20042;-58
2022/07/30 04:26:50;;;;;;;15.68;12.48;;;;;;;16.17;100.00;101673.84;5153563;27;20054;-59
2022/07/30 04:29:20;;;;;;;13.95;11.30;;;;;;;16.20;100.00;101678.06;5154815;27;20051;-59
2022/07/30 04:31:53;;;;;;;;;;;;;;;16.30;100.00;101676.38;5155450;27;20107;-59
2022/07/30 04:34:21;;;;;;;16.17;10.23;;;;;;;16.33;100.00;101681.47;5153781;27;19980;-58
2022/07/30 04:36:49;;;;;;;16.92;10.57;;;;;;;16.36;100.00;101683.03;5150185;27;20757;-59
2022/07/30 04:39:17;;;;;;;17.92;11.27;;;;;;;16.42;100.00;101681.75;5153789;27;20035;-59
2022/07/30 04:41:46;;;;;;;15.20;9.75;;;;;;;16.41;100.00;101688.84;5154550;27;20042;-58
2022/07/30 04:44:16;;;;;;;14.45;9.65;;;;;;;16.48;100.00;101690.06;5154673;27;20042;-58
2022/07/30 04:46:45;;;;;;;14.70;9.95;;;;;;;16.42;100.00;101687.88;5153420;27;20054;-59
2022/07/30 04:49:16;;;;;;;15.40;9.95;;;;;;;16.43;100.00;101686.06;5151774;27;20095;-58
2022/07/30 04:51:45;;;;;;;12.48;9.30;;;;;;;16.42;100.00;101684.41;5153494;27;20054;-59
2022/07/30 04:54:15;;;;;;;13.93;9.05;;;;;;;16.41;100.00;101696.81;5154614;27;20118;-58
2022/07/30 04:56:46;;;;;;;14.82;9.32;;;;;;;16.44;100.00;101703.69;5154362;27;20059;-59
2022/07/30 04:59:23;;;;;;;16.90;8.40;;;;;;;16.42;100.00;101705.63;5151938;27;20047;-59
2022/07/30 05:01:56;;;;;;;15.40;8.93;;;;;;;16.46;100.00;101712.41;5153505;27;20039;-59
2022/07/30 05:04:26;;;;;;;12.45;8.63;;;;;;;16.46;100.00;101713.22;5154399;27;20046;-59
2022/07/30 05:06:56;;;;;;;13.77;9.02;;;;;;;16.44;100.00;101712.50;5154206;27;20054;-59
2022/07/30 05:09:26;;;;;;;14.65;9.15;;;;;;;16.43;100.00;101708.16;5154433;27;20043;-58
2022/07/30 05:11:55;;;;;;;12.82;8.88;;;;;;;16.41;100.00;101710.06;5153205;27;20105;-59
2022/07/30 05:14:24;;;;;;;12.38;8.95;;;;;;;16.44;100.00;101712.50;5151932;27;20050;-56
2022/07/30 05:16:54;;;;;;;14.50;8.93;;;;;;;16.50;100.00;101717.34;5153624;27;20404;-58
2022/07/30 05:19:23;;;;;;;16.33;8.82;;;;;;;16.46;100.00;101717.72;5154032;27;20038;-58
2022/07/30 05:21:52;;;;;;;15.23;8.75;;;;;;;16.51;100.00;101723.47;5150146;27;20046;-58
2022/07/30 05:24:20;;;;;;;14.98;9.15;;;;;;;16.56;100.00;101724.00;5152346;27;20046;-57
2022/07/30 05:26:49;;;;;;;14.02;9.13;;;;;;;16.60;100.00;101727.25;5154083;27;20474;-57
2022/07/30 05:29:17;;;;;;;15.20;9.13;;;;;;;16.69;100.00;101723.91;5153772;27;20497;-57
2022/07/30 05:31:47;;;;;;;17.35;9.00;;;;;;;16.76;100.00;101722.47;5151344;27;20050;-58
2022/07/30 05:34:17;;;;;;;14.70;8.85;;;;;;;16.71;100.00;101728.13;5151606;27;20099;-58
2022/07/30 05:36:45;;;;;;;13.73;9.25;;;;;;;16.73;100.00;101726.19;5153742;27;20046;-59
2022/07/30 05:39:15;;;;;;;12.73;8.43;;;;;;;16.76;100.00;101730.44;5153209;27;20100;-59
2022/07/30 05:41:43;;;;;;;14.30;8.75;;;;;;;16.84;100.00;101729.84;5133299;27;20454;-59
2022/07/30 05:44:11;;;;;;;16.65;8.20;;;;;;;16.90;100.00;101730.22;5150574;27;20081;-58
2022/07/30 05:46:39;;;;;;;11.32;7.75;;;;;;;16.91;100.00;101728.41;5153079;27;20046;-59
2022/07/30 05:49:07;;;;;;;12.77;8.02;;;;;;;17.02;100.00;101724.91;5153124;27;20497;-58
2022/07/30 05:51:37;;;;;;;12.90;7.22;;;;;;;17.09;100.00;101735.91;5130514;27;20544;-59
2022/07/30 05:54:06;;;;;;;13.80;8.10;;;;;;;17.15;100.00;101730.97;5152669;27;20050;-60
2022/07/30 05:56:34;;;;;;;14.38;7.85;;;;;;;17.23;100.00;101731.19;5153797;27;20092;-59
2022/07/30 05:59:03;;;;;;;15.60;7.15;;;;;;;17.24;100.00;101732.03;5153481;27;20064;-60
2022/07/30 06:01:31;;;;;;;13.45;7.30;;;;;;;17.30;100.00;101728.91;5153587;27;20074;-58
2022/07/30 06:03:59;;;;;;;12.52;6.55;;;;;;;17.38;100.00;101730.94;5153535;27;20075;-60
2022/07/30 06:06:27;;;;;;;12.55;6.63;;;;;;;17.46;100.00;101738.28;5153858;27;20038;-59
2022/07/30 06:08:56;;;;;;;16.35;6.85;;;;;;;17.50;100.00;101737.06;5133814;27;20039;-59
2022/07/30 06:11:25;;;;;;;10.70;6.60;;;;;;;17.56;100.00;101739.22;5150397;27;20042;-59
2022/07/30 06:13:53;;;;;;;14.93;6.40;;;;;;;17.65;100.00;101741.16;5153685;27;20541;-58
2022/07/30 06:16:21;;;;;;;11.43;5.85;;;;;;;17.69;100.00;101739.09;5153397;27;20057;-58
2022/07/30 06:18:49;;;;;;;11.80;5.70;;;;;;;17.76;100.00;101740.28;5152451;27;20354;-58
2022/07/30 06:21:18;;;;;;;10.68;6.18;;;;;;;17.85;100.00;101749.34;5149178;27;20507;-60
2022/07/30 06:23:46;;;;;;;11.20;6.25;;;;;;;17.92;100.00;101744.41;5152983;27;20358;-59
2022/07/30 06:26:15;;;;;;;10.85;5.50;;;;;;;18.00;100.00;101748.09;5153626;27;20051;-60
2022/07/30 06:28:43;;;;;;;11.07;5.35;;;;;;;18.14;100.00;101749.59;5152730;27;20552;-59
2022/07/30 06:31:11;;;;;;;11.13;5.97;;;;;;;18.12;100.00;101748.03;5150567;27;20054;-59
2022/07/30 06:33:39;;;;;;;11.93;6.07;;;;;;;18.18;100.00;101751.03;5151981;27;20043;-60
2022/07/30 06:36:08;;;;;;;10.68;5.70;;;;;;;18.14;100.00;101754.94;5152835;27;20035;-59
2022/07/30 06:38:41;;;;;;;10.70;5.90;;;;;;;18.19;100.00;101752.75;5152780;27;20058;-59
2022/07/30 06:41:09;;;;;;;13.98;5.93;;;;;;;18.30;100.00;101762.50;5152603;27;20107;-59
2022/07/30 06:43:39;;;;;;;10.05;5.00;;;;;;;18.40;100.00;101762.56;5151899;27;20058;-60
2022/07/30 06:46:07;;;;;;;10.68;4.95;;;;;;;18.59;100.00;101764.50;5150971;27;20179;-59
2022/07/30 06:48:36;;;;;;;13.23;5.75;;;;;;;18.72;100.00;101759.84;5155849;27;20106;-59
2022/07/30 06:51:04;;;;;;;10.75;4.90;;;;;;;18.88;100.00;101763.88;5156776;27;20576;-60
2022/07/30 06:53:32;;;;;;;11.50;4.70;;;;;;;19.04;100.00;101768.72;5153160;27;20497;-60
2022/07/30 06:56:09;;;;;;;10.43;4.57;;;;;;;19.17;100.00;101771.16;5154817;27;20046;-61
2022/07/30 06:58:38;;;;;;;10.35;4.50;;;;;;;19.15;98.39;101773.13;5156603;27;20387;-60
2022/07/30 07:01:06;;;;;;;11.10;4.32;;;;;;;19.28;99.43;101765.75;5156539;27;20042;-61
2022/07/30 07:03:38;;;;;;;9.52;3.65;;;;;;;19.34;96.78;101769.69;5154599;27;20043;-60
2022/07/30 07:06:08;;;;;;;9.75;4.05;;;;;;;19.34;96.39;101767.84;5135428;27;20046;-59
2022/07/30 07:08:39;;;;;;;12.23;4.35;;;;;;;19.41;95.48;101765.50;5156835;27;20074;-61
2022/07/30 07:11:07;;;;;;;9.20;3.70;;;;;;;19.45;94.51;101768.75;5156675;27;20070;-61
2022/07/30 07:13:35;;;;;;;8.27;4.15;;;;;;;19.48;92.32;101771.13;5156325;27;20050;-61
2022/07/30 07:16:05;;;;;;;9.35;3.45;;;;;;;19.60;92.35;101764.72;5156331;27;20046;-60
2022/07/30 07:18:33;;;;;;;9.98;3.47;;;;;;;19.62;92.09;101778.78;5156483;27;20046;-61
2022/07/30 07:21:01;;;;;;;11.25;3.42;;;;;;;19.79;91.23;101779.09;5155964;27;20087;-60
2022/07/30 07:23:29;;;;;;;10.10;3.80;;;;;;;19.92;91.43;101766.34;5155953;27;20042;-60
2022/07/30 07:26:10;;;;;;;12.07;3.22;;;;;;;20.08;91.18;101769.31;5156204;27;20115;-60
2022/07/30 07:28:40;;;;;;;8.50;3.42;;;;;;;20.23;89.43;101777.75;5153746;27;20054;-60
2022/07/30 07:31:10;;;;;;;7.45;2.95;;;;;;;20.31;87.66;101774.34;5153563;27;20095;-60
2022/07/30 07:33:58;;;;;;;11.20;3.20;;;;;;;20.45;84.88;101778.44;5155969;27;20397;-61
2022/07/30 07:36:26;;;;;;;7.15;2.78;;;;;;;20.54;84.42;101782.91;5137721;27;20070;-59
2022/07/30 07:38:54;;;;;;;8.20;3.05;;;;;;;20.68;85.07;101779.00;5135193;27;20057;-61
2022/07/30 07:41:22;;;;;;;8.05;3.28;;;;;;;20.76;81.44;101788.94;5133888;27;20435;-61
2022/07/30 07:43:50;;;;;;;7.50;3.00;;;;;;;20.89;82.36;101783.31;5155804;27;20035;-60
2022/07/30 07:46:19;;;;;;;7.20;2.72;;;;;;;21.18;83.61;101783.19;5156042;27;20043;-60
2022/07/30 07:49:01;;;;;;;8.77;3.10;;;;;;;21.24;79.63;101779.06;5154432;27;20050;-61
2022/07/30 07:51:29;;;;;;;8.45;3.00;;;;;;;21.37;80.12;101776.91;5151076;27;20047;-61
2022/07/30 07:54:15;;;;;;;8.80;2.90;;;;;;;21.52;78.34;101784.44;5155708;27;20046;-60
2022/07/30 07:56:50;;;;;;;10.00;2.85;;;;;;;21.76;79.00;101779.41;5155689;27;20046;-61
2022/07/30 07:59:20;;;;;;;5.93;2.75;;;;;;;21.97;77.29;101788.97;5155235;27;20118;-62
2022/07/30 08:01:51;;;;;;;11.65;3.65;;;;;;;22.15;76.71;101780.09;5155380;27;20045;-60
2022/07/30 08:04:19;;;;;;;8.55;3.05;;;;;;;22.19;75.04;101787.66;5155565;27;20046;-60
2022/07/30 08:06:47;;;;;;;7.80;2.58;;;;;;;22.40;74.87;101776.66;5153556;27;20103;-61
2022/07/30 08:09:15;;;;;;;5.68;2.60;;;;;;;22.54;74.50;101785.16;5153225;27;20448;-61
2022/07/30 08:11:43;;;;;;;8.70;2.95;;;;;;;22.48;72.21;101780.41;5153809;27;20043;-61
2022/07/30 08:14:11;;;;;;;7.90;2.60;;;;;;;22.62;71.57;101772.63;5154953;27;20034;-56
2022/07/30 08:16:39;;;;;;;7.70;2.25;;;;;;;22.82;70.64;101775.09;5154904;27;20083;-57
2022/07/30 08:19:09;;;;;;;7.70;2.33;;;;;;;22.91;67.66;101778.69;5154913;27;20073;-57
2022/07/30 08:21:37;;;;;;;8.65;2.80;;;;;;;22.90;67.44;101780.50;5154839;27;20483;-57
2022/07/30 08:24:08;;;;;;;4.95;2.10;;;;;;;23.12;69.15;101780.97;5154816;27;20059;-57
2022/07/30 08:26:36;;;;;;;6.72;2.25;;;;;;;23.15;65.86;101775.34;5154939;27;20046;-60
2022/07/30 08:29:04;;;;;;;6.28;2.35;;;;;;;23.25;65.94;101769.84;5152367;27;20063;-61
2022/07/30 08:31:32;;;;;;;6.00;2.45;;;;;;;23.44;65.21;101764.19;5152182;27;20091;-62
2022/07/30 08:34:02;;;;;;;8.43;2.80;;;;;;;23.45;65.22;101762.34;5154656;27;20054;-59
2022/07/30 08:36:31;;;;;;;9.93;3.03;;;;;;;23.50;64.49;101764.56;5154900;27;20047;-59
2022/07/30 08:39:00;;;;;;;8.68;2.83;;;;;;;23.53;63.31;101759.72;5155147;27;20042;-58
2022/07/30 08:41:28;;;;;;;7.13;2.70;;;;;;;23.44;61.22;101760.69;5152532;27;20111;-59
2022/07/30 08:43:59;;;;;;;6.60;2.60;;;;;;;23.53;61.77;101764.22;5152496;27;20050;-62
2022/07/30 08:46:31;;;;;;;5.60;2.17;;;;;;;23.57;60.91;101773.63;5154598;27;20054;-60
2022/07/30 08:49:00;;;;;;;5.85;2.33;;;;;;;23.67;60.35;101765.44;5112897;28;20052;-60
2022/07/30 08:51:39;;;;;;;4.93;2.13;;;;;;;23.70;58.44;101765.94;5112814;28;20047;-59
2022/07/30 08:54:08;;;;;;;6.00;2.30;;;;;;;23.89;57.79;101769.38;5112510;28;20048;-62
2022/07/30 08:56:36;;;;;;;5.63;2.28;;;;;;;24.13;59.82;101764.03;5112865;27;20043;-60
2022/07/30 08:59:04;;;;;;;6.43;2.35;;;;;;;24.25;57.39;101769.06;5112795;28;20511;-62
2022/07/30 09:01:32;;;;;;;7.28;2.45;;;;;;;24.32;57.01;101770.06;5112689;28;20039;-62
2022/07/30 09:04:01;;;;;;;7.85;2.13;;;;;;;24.53;58.61;101771.38;5112743;28;20054;-62
2022/07/30 09:06:29;;;;;;;8.82;2.33;;;;;;;24.77;57.32;101774.06;5108716;28;20043;-61
2022/07/30 09:08:58;;;;;;;4.90;1.95;;;;;;;24.69;54.57;101770.56;5110223;28;20086;-60
2022/07/30 09:11:27;;;;;;;7.47;2.22;;;;;;;24.86;52.45;101779.44;5112691;28;20118;-60
2022/07/30 09:13:55;;;;;;;6.90;2.00;;;;;;;25.26;53.20;101783.81;5112747;28;20047;-59
2022/07/30 09:16:24;;;;;;;4.10;2.00;;;;;;;25.37;51.03;101777.25;5113014;28;20392;-60
2022/07/30 09:18:54;;;;;;;7.78;2.30;;;;;;;25.17;49.65;101774.13;5112856;28;20330;-58
2022/07/30 09:21:24;;;;;;;6.22;2.25;;;;;;;25.28;50.31;101780.97;5111534;28;20382;-59
2022/07/30 09:23:58;;;;;;;5.18;1.80;;;;;;;25.45;50.75;101776.38;5110319;28;20048;-59
2022/07/30 09:26:26;;;;;;;6.13;2.42;;;;;;;25.59;51.41;101777.47;5111109;28;20051;-61
2022/07/30 09:28:55;;;;;;;7.30;2.28;;;;;;;25.72;50.68;101779.59;5112950;28;20458;-61
2022/07/30 09:31:23;;;;;;;6.03;2.60;;;;;;;25.53;50.78;101770.94;5128566;27;20505;-59
2022/07/30 09:33:51;;;;;;;6.25;2.08;;;;;;;25.80;51.64;101775.00;5131753;27;20050;-59
2022/07/30 09:36:19;;;;;;;6.95;2.33;;;;;;;25.98;49.16;101768.47;5132879;27;20055;-59
2022/07/30 09:38:50;;;;;;;5.95;1.92;;;;;;;25.95;48.93;101777.75;5131928;27;20748;-59
2022/07/30 09:41:31;;;;;;;5.63;1.98;;;;;;;26.29;48.02;101770.28;5129840;27;20047;-59
2022/07/30 09:44:07;;;;;;;7.22;2.00;;;;;;;26.60;47.91;101774.69;5132594;27;20043;-61
2022/07/30 09:46:43;;;;;;;5.28;1.80;;;;;;;26.84;48.21;101770.13;5133996;27;20498;-60
2022/07/30 09:49:15;;;;;;;6.68;2.10;;;;;;;26.71;46.53;101768.03;5174409;27;20091;-60
2022/07/30 09:51:44;;;;;;;6.35;2.00;;;;;;;26.90;46.91;101763.97;5174473;27;20058;-61
2022/07/30 09:54:25;;;;;;;7.57;2.08;;;;;;;26.88;47.35;101777.63;5172197;27;20085;-60
2022/07/30 09:57:07;;;;;;;6.00;2.20;;;;;;;27.09;45.72;101771.50;5172228;27;20031;-60
2022/07/30 09:59:54;;;;;;;4.97;1.90;;;;;;;27.33;46.06;101774.91;5174702;27;20057;-61
2022/07/30 10:02:30;;;;;;;6.88;2.13;;;;;;;27.29;44.68;101779.00;5155735;27;20062;-61
2022/07/30 10:05:10;;;;;;;6.57;1.98;;;;;;;27.45;46.49;101786.94;5174184;27;20038;-59
2022/07/30 10:07:49;;;;;;;7.50;2.00;;;;;;;27.30;45.23;101786.09;5170717;27;20046;-59
2022/07/30 10:10:21;;;;;;;5.57;1.70;;;;;;;27.45;45.20;101789.63;5173005;27;20039;-61
2022/07/30 10:12:58;;;;;;;6.07;2.00;;;;;;;27.15;43.88;101784.25;5172354;27;20469;-59
2022/07/30 10:15:30;;;;;;;7.68;2.20;;;;;;;27.31;44.94;101783.19;5171365;27;20050;-60
2022/07/30 10:18:00;;;;;;;6.32;1.80;;;;;;;27.30;45.36;101781.53;5174403;27;20043;-60
2022/07/30 10:20:28;;;;;;;6.22;1.88;;;;;;;27.77;44.10;101765.91;5174325;27;20133;-59
2022/07/30 10:22:59;;;;;;;5.22;1.77;;;;;;;28.08;44.11;101770.16;5176849;27;20061;-60
2022/07/30 10:25:36;;;;;;;6.25;1.90;;;;;;;28.07;41.65;101770.34;5176152;27;20069;-61
2022/07/30 10:28:23;;;;;;;5.72;1.83;;;;;;;27.92;42.50;101760.44;5176038;27;20046;-61
2022/07/30 10:30:53;;;;;;;4.35;1.80;;;;;;;27.78;42.67;101758.63;5178075;27;20047;-59
2022/07/30 10:33:24;;;;;;;6.30;1.70;;;;;;;27.89;42.20;101760.78;5178168;27;20042;-59
2022/07/30 10:36:04;;;;;;;5.18;1.90;;;;;;;28.22;41.00;101762.16;5178065;27;20066;-59
2022/07/30 10:38:37;;;;;;;5.45;1.60;;;;;;;28.45;40.16;101753.81;5178114;27;20077;-61
2022/07/30 10:41:17;;;;;;;4.82;1.63;;;;;;;28.41;40.81;101747.94;5178010;27;20455;-60
2022/07/30 10:44:20;;;;;;;6.03;1.80;;;;;;;28.62;39.71;101751.66;5177735;27;20065;-60
2022/07/30 10:47:00;;;;;;;5.30;1.55;;;;;;;28.92;41.47;101759.53;5177710;27;20735;-60
2022/07/30 10:49:36;;;;;;;5.70;1.50;;;;;;;28.96;39.17;101761.66;5177816;27;20045;-59
2022/07/30 10:52:10;;;;;;;8.85;1.80;;;;;;;29.12;41.16;101763.19;5177982;27;20377;-60
2022/07/30 10:54:43;;;;;;;4.18;1.63;;;;;;;29.13;38.80;101759.44;5177859;27;20054;-60
2022/07/30 10:57:12;;;;;;;;;;;;;;;29.56;38.25;101754.81;5178066;27;20129;-61
2022/07/30 11:00:15;;;;;;;5.45;1.70;;;;;;;29.32;37.18;101760.56;5177544;27;19919;-60
2022/07/30 11:03:12;;;;;;;5.78;1.85;;;;;;;29.45;36.44;101748.09;5158980;27;20042;-60
2022/07/30 11:05:42;;;;;;;4.35;1.50;;;;;;;29.17;36.24;101747.16;5177446;27;20046;-59
2022/07/30 11:08:30;;;;;;;6.18;1.85;;;;;;;29.40;36.45;101754.16;5177186;27;20425;-60
2022/07/30 11:11:00;;;;;;;4.05;1.20;;;;;;;29.77;35.72;101746.50;5175403;27;20069;-61
2022/07/30 11:13:55;;;;;;;3.55;1.38;;;;;;;29.80;34.14;101750.69;5174416;27;20038;-60
2022/07/30 11:16:47;;;;;;;3.88;1.30;;;;;;;29.61;34.49;101744.19;5177258;27;20042;-60
2022/07/30 11:19:16;;;;;;;3.90;1.63;;;;;;;30.11;34.16;101736.56;5177032;27;20046;-60
2022/07/30 11:22:25;;;;;;;4.78;1.33;;;;;;;30.26;33.67;101751.78;5173386;27;20042;-59
2022/07/30 11:24:55;;;;;;;5.10;1.30;;;;;;;30.22;32.95;101751.38;5175508;27;20077;-61
2022/07/30 11:27:40;;;;;;;4.90;1.50;;;;;;;30.30;33.15;101753.03;5177197;27;20046;-61
2022/07/30 11:30:34;;;;;;;4.82;1.30;;;;;;;30.66;34.08;101751.75;5176898;27;20042;-60
2022/07/30 11:33:25;;;;;;;4.50;1.45;;;;;;;30.85;34.16;101752.75;5176080;27;20568;-61